createdAt,value
2022-10-22T00:00:57.118Z,27.4
2022-10-22T00:01:59.592Z,27.5
2022-10-22T00:03:02.143Z,27.5
2022-10-22T00:04:04.842Z,27.5
2022-10-22T00:05:07.347Z,27.4
2022-10-22T00:06:10.145Z,27.4
2022-10-22T00:07:12.666Z,27.5
2022-10-22T00:08:14.836Z,27.4
2022-10-22T00:09:17.361Z,27.4
2022-10-22T00:10:20.048Z,27.6
2022-10-22T00:11:22.519Z,27.5
2022-10-22T00:12:24.792Z,27.6
2022-10-22T00:13:26.693Z,27.4
2022-10-22T00:14:28.888Z,27.6
2022-10-22T00:15:31.362Z,27.6
2022-10-22T00:16:33.546Z,27.6
2022-10-22T00:17:35.744Z,27.6
2022-10-22T00:18:39.590Z,27.5
2022-10-22T00:19:42.079Z,27.6
2022-10-22T00:20:44.574Z,27.6
2022-10-22T00:21:47.037Z,27.6
2022-10-22T00:22:49.569Z,27.7
2022-10-22T00:23:52.825Z,27.7
2022-10-22T00:24:55.183Z,27.6
2022-10-22T00:25:57.662Z,27.8
2022-10-22T00:27:00.126Z,27.8
2022-10-22T00:28:02.595Z,27.7
2022-10-22T00:29:04.521Z,27.7
2022-10-22T00:30:07.002Z,27.8
2022-10-22T00:31:09.649Z,27.7
2022-10-22T00:32:11.845Z,27.6
2022-10-22T00:33:13.487Z,27.8
2022-10-22T00:34:15.685Z,27.6
2022-10-22T00:35:17.910Z,27.7
2022-10-22T00:36:20.418Z,27.7
2022-10-22T00:37:22.658Z,27.7
2022-10-22T00:38:25.195Z,27.7
2022-10-22T00:39:27.391Z,27.8
2022-10-22T00:40:29.896Z,27.7
2022-10-22T00:41:32.372Z,27.7
2022-10-22T00:42:34.869Z,27.7
2022-10-22T00:43:36.795Z,27.8
2022-10-22T00:44:39.355Z,27.7
2022-10-22T00:45:41.556Z,27.8
2022-10-22T00:46:44.022Z,27.8
2022-10-22T00:47:46.493Z,27.6
2022-10-22T00:48:48.964Z,27.7
2022-10-22T00:49:51.494Z,27.8
2022-10-22T00:50:54.397Z,27.6
2022-10-22T00:51:57.342Z,27.6
2022-10-22T00:52:59.515Z,27.8
2022-10-22T00:54:02.032Z,27.7
2022-10-22T00:55:04.593Z,27.7
2022-10-22T00:56:06.801Z,27.9
2022-10-22T00:57:09.502Z,27.6
2022-10-22T00:58:11.704Z,27.8
2022-10-22T00:59:14.172Z,27.8
2022-10-22T01:00:16.691Z,27.8
2022-10-22T01:01:19.203Z,27.7
2022-10-22T01:02:22.192Z,27.7
2022-10-22T01:03:24.366Z,27.6
2022-10-22T01:04:26.573Z,27.6
2022-10-22T01:05:29.045Z,27.6
2022-10-22T01:06:30.962Z,27.7
2022-10-22T01:07:33.172Z,27.8
2022-10-22T01:08:35.386Z,27.7
2022-10-22T01:09:38.055Z,27.7
2022-10-22T01:10:39.984Z,27.7
2022-10-22T01:11:42.443Z,27.8
2022-10-22T01:12:44.919Z,27.7
2022-10-22T01:13:47.537Z,27.7
2022-10-22T01:14:49.716Z,27.7
2022-10-22T01:15:51.909Z,28
2022-10-22T01:16:53.820Z,27.6
2022-10-22T01:17:56.386Z,27.6
2022-10-22T01:18:58.578Z,27.7
2022-10-22T01:20:01.038Z,27.7
2022-10-22T01:21:03.239Z,27.9
2022-10-22T01:22:05.458Z,27.7
2022-10-22T01:23:07.683Z,27.9
2022-10-22T01:24:10.617Z,27.8
2022-10-22T01:25:13.172Z,27.7
2022-10-22T01:26:15.092Z,27.6
2022-10-22T01:27:17.629Z,27.9
2022-10-22T01:28:20.099Z,27.8
2022-10-22T01:29:22.572Z,27.9
2022-10-22T01:30:24.761Z,27.8
2022-10-22T01:31:26.957Z,27.9
2022-10-22T01:32:28.871Z,28
2022-10-22T01:33:31.060Z,27.8
2022-10-22T01:34:33.520Z,28
2022-10-22T01:35:35.441Z,27.9
2022-10-22T01:36:38.422Z,27.8
2022-10-22T01:37:41.163Z,27.7
2022-10-22T01:38:45.045Z,27.8
2022-10-22T01:39:48.082Z,28
2022-10-22T01:40:50.599Z,27.7
2022-10-22T01:41:52.794Z,27.9
2022-10-22T01:42:55.366Z,27.9
2022-10-22T01:43:57.834Z,28
2022-10-22T01:45:00.031Z,27.7
2022-10-22T01:46:02.505Z,27.8
2022-10-22T01:47:04.985Z,27.7
2022-10-22T01:48:07.183Z,27.9
2022-10-22T01:49:09.775Z,27.9
2022-10-22T01:50:12.274Z,27.9
2022-10-22T01:51:14.499Z,27.9
2022-10-22T01:52:16.967Z,27.8
2022-10-22T01:53:19.458Z,27.9
2022-10-22T01:54:21.955Z,27.8
2022-10-22T01:55:24.153Z,27.9
2022-10-22T01:56:26.695Z,27.7
2022-10-22T01:57:29.183Z,28
2022-10-22T01:58:31.656Z,28
2022-10-22T01:59:33.581Z,27.8
2022-10-22T02:00:36.111Z,28
2022-10-22T02:01:38.743Z,27.9
2022-10-22T02:02:40.987Z,27.8
2022-10-22T02:03:43.781Z,27.9
2022-10-22T02:04:45.985Z,27.9
2022-10-22T02:05:48.792Z,27.8
2022-10-22T02:06:50.983Z,28
2022-10-22T02:07:53.181Z,27.9
2022-10-22T02:08:55.883Z,27.8
2022-10-22T02:09:58.431Z,27.9
2022-10-22T02:11:00.901Z,27.8
2022-10-22T02:12:03.421Z,27.9
2022-10-22T02:13:07.003Z,27.9
2022-10-22T02:14:09.658Z,28
2022-10-22T02:15:12.130Z,28
2022-10-22T02:16:14.630Z,27.8
2022-10-22T02:17:17.106Z,28
2022-10-22T02:18:19.584Z,28
2022-10-22T02:19:21.784Z,27.9
2022-10-22T02:20:24.258Z,27.7
2022-10-22T02:21:26.179Z,27.8
2022-10-22T02:22:28.654Z,28
2022-10-22T02:23:31.121Z,28.1
2022-10-22T02:24:33.336Z,27.8
2022-10-22T02:25:35.830Z,27.9
2022-10-22T02:26:38.505Z,27.8
2022-10-22T02:27:40.760Z,27.9
2022-10-22T02:28:43.232Z,27.8
2022-10-22T02:29:45.706Z,28.2
2022-10-22T02:30:47.331Z,27.9
2022-10-22T02:31:49.550Z,27.7
2022-10-22T02:32:51.849Z,27.9
2022-10-22T02:33:54.050Z,27.9
2022-10-22T02:34:56.925Z,27.8
2022-10-22T02:35:59.394Z,27.9
2022-10-22T02:37:01.592Z,27.9
2022-10-22T02:38:03.765Z,27.9
2022-10-22T02:39:06.271Z,28
2022-10-22T02:40:08.517Z,27.9
2022-10-22T02:41:11.426Z,28.1
2022-10-22T02:42:13.903Z,27.9
2022-10-22T02:43:16.438Z,27.8
2022-10-22T02:44:18.659Z,27.9
2022-10-22T02:45:21.130Z,27.8
2022-10-22T02:46:23.332Z,27.9
2022-10-22T02:47:25.810Z,28
2022-10-22T02:48:28.017Z,27.8
2022-10-22T02:49:30.493Z,28.1
2022-10-22T02:50:32.677Z,27.8
2022-10-22T02:51:35.142Z,28
2022-10-22T02:52:37.267Z,27.9
2022-10-22T02:53:42.258Z,27.9
2022-10-22T02:54:44.455Z,28.1
2022-10-22T02:55:46.958Z,28
2022-10-22T02:56:49.478Z,27.9
2022-10-22T02:57:51.936Z,28.1
2022-10-22T02:58:54.482Z,27.9
2022-10-22T02:59:56.955Z,27.9
2022-10-22T03:00:58.909Z,27.9
2022-10-22T03:02:01.360Z,28
2022-10-22T03:03:03.847Z,27.8
2022-10-22T03:04:06.314Z,27.8
2022-10-22T03:05:08.819Z,27.8
2022-10-22T03:06:11.348Z,27.9
2022-10-22T03:07:13.892Z,27.9
2022-10-22T03:08:16.356Z,27.8
2022-10-22T03:09:20.113Z,27.7
2022-10-22T03:10:23.551Z,27.4
2022-10-22T03:11:26.042Z,28.1
2022-10-22T03:12:28.538Z,27.9
2022-10-22T03:13:30.733Z,27.8
2022-10-22T03:14:33.254Z,28.1
2022-10-22T03:15:35.479Z,27.6
2022-10-22T03:16:38.117Z,28.1
2022-10-22T03:17:40.656Z,27.2
2022-10-22T03:18:44.045Z,27.6
2022-10-22T03:19:46.851Z,27.5
2022-10-22T03:20:49.414Z,27.7
2022-10-22T03:21:51.616Z,27.3
2022-10-22T03:22:53.810Z,27.5
2022-10-22T03:23:56.372Z,27.5
2022-10-22T03:24:58.599Z,27.6
2022-10-22T03:26:00.792Z,27.7
2022-10-22T03:27:03.286Z,27.6
2022-10-22T03:28:05.790Z,27.7
2022-10-22T03:29:08.251Z,27.5
2022-10-22T03:30:10.821Z,27.6
2022-10-22T03:31:13.304Z,27.5
2022-10-22T03:32:15.774Z,27.4
2022-10-22T03:33:17.693Z,27.5
2022-10-22T03:34:20.168Z,27.5
2022-10-22T03:35:22.380Z,27.7
2022-10-22T03:36:24.578Z,27.4
2022-10-22T03:37:26.786Z,27.6
2022-10-22T03:38:28.967Z,27.4
2022-10-22T03:39:30.893Z,27.5
2022-10-22T03:40:33.365Z,27.4
2022-10-22T03:41:35.852Z,27.4
2022-10-22T03:42:38.332Z,27.6
2022-10-22T03:43:40.559Z,27.5
2022-10-22T03:44:43.025Z,27.5
2022-10-22T03:45:45.586Z,27.3
2022-10-22T03:46:48.586Z,27.2
2022-10-22T03:47:51.058Z,27.3
2022-10-22T03:48:53.235Z,27.6
2022-10-22T03:49:55.439Z,27.3
2022-10-22T03:50:57.908Z,27.3
2022-10-22T03:52:00.105Z,27.2
2022-10-22T03:53:02.576Z,27.2
2022-10-22T03:54:05.055Z,27.4
2022-10-22T03:55:07.527Z,27.3
2022-10-22T03:56:10.008Z,27.4
2022-10-22T03:57:12.180Z,27.5
2022-10-22T03:58:14.764Z,27.4
2022-10-22T03:59:17.279Z,27.5
2022-10-22T04:00:19.500Z,27.2
2022-10-22T04:01:22.078Z,27.4
2022-10-22T04:02:24.873Z,27.3
2022-10-22T04:03:27.423Z,27.3
2022-10-22T04:04:29.354Z,27.4
2022-10-22T04:05:31.282Z,27.3
2022-10-22T04:06:33.483Z,27.3
2022-10-22T04:07:35.960Z,27.4
2022-10-22T04:08:39.399Z,27.2
2022-10-22T04:09:41.909Z,27.5
2022-10-22T04:10:44.393Z,27.4
2022-10-22T04:11:46.862Z,27.4
2022-10-22T04:12:49.337Z,27.4
2022-10-22T04:13:51.833Z,27.2
2022-10-22T04:14:54.326Z,27.3
2022-10-22T04:15:56.799Z,27.3
2022-10-22T04:16:59.058Z,27.4
2022-10-22T04:18:01.546Z,27.1
2022-10-22T04:19:03.733Z,27.3
2022-10-22T04:20:05.942Z,27.2
2022-10-22T04:21:08.145Z,27.3
2022-10-22T04:22:10.640Z,27.4
2022-10-22T04:23:13.108Z,27.1
2022-10-22T04:24:15.584Z,27.3
2022-10-22T04:25:18.069Z,27.4
2022-10-22T04:26:20.251Z,27.4
2022-10-22T04:27:22.730Z,27.4
2022-10-22T04:28:25.213Z,27.2
2022-10-22T04:29:27.697Z,27.3
2022-10-22T04:30:29.899Z,27.3
2022-10-22T04:31:32.366Z,27.5
2022-10-22T04:32:34.914Z,27.3
2022-10-22T04:33:37.397Z,27.2
2022-10-22T04:34:39.325Z,27.4
2022-10-22T04:35:41.791Z,27.4
2022-10-22T04:36:43.994Z,27.3
2022-10-22T04:37:46.466Z,27.4
2022-10-22T04:38:48.780Z,27.2
2022-10-22T04:39:51.250Z,27.2
2022-10-22T04:40:53.465Z,27.4
2022-10-22T04:41:55.931Z,27.1
2022-10-22T04:42:57.844Z,27.1
2022-10-22T04:44:00.314Z,27.1
2022-10-22T04:45:03.140Z,27.5
2022-10-22T04:46:05.345Z,27.3
2022-10-22T04:47:07.267Z,27.4
2022-10-22T04:48:09.817Z,27.2
2022-10-22T04:49:11.742Z,27.1
2022-10-22T04:50:13.940Z,27.3
2022-10-22T04:51:15.877Z,27.3
2022-10-22T04:52:18.347Z,27.3
2022-10-22T04:53:19.981Z,27.3
2022-10-22T04:54:21.900Z,27.4
2022-10-22T04:55:26.374Z,27.1
2022-10-22T04:56:29.071Z,27.2
2022-10-22T04:57:31.545Z,27.3
2022-10-22T04:58:34.017Z,27.3
2022-10-22T04:59:36.495Z,27.2
2022-10-22T05:00:38.740Z,27.2
2022-10-22T05:01:42.669Z,27.2
2022-10-22T05:02:45.270Z,27.2
2022-10-22T05:03:47.529Z,27.3
2022-10-22T05:04:49.181Z,27.4
2022-10-22T05:05:51.385Z,27.4
2022-10-22T05:06:53.864Z,27.3
2022-10-22T05:07:56.079Z,27.1
2022-10-22T05:08:58.062Z,27.1
2022-10-22T05:10:00.477Z,27.2
2022-10-22T05:11:02.957Z,27.1
2022-10-22T05:12:04.852Z,27.2
2022-10-22T05:13:07.058Z,27.2
2022-10-22T05:14:09.250Z,27.3
2022-10-22T05:15:11.446Z,27.1
2022-10-22T05:16:13.927Z,27.2
2022-10-22T05:17:16.151Z,27.2
2022-10-22T05:18:20.293Z,27.2
2022-10-22T05:19:23.616Z,27.2
2022-10-22T05:20:26.312Z,27.3
2022-10-22T05:21:28.779Z,27.3
2022-10-22T05:22:30.695Z,27.2
2022-10-22T05:23:32.908Z,27.2
2022-10-22T05:24:35.374Z,27.2
2022-10-22T05:25:37.580Z,27.2
2022-10-22T05:26:39.892Z,27.1
2022-10-22T05:27:42.360Z,27.1
2022-10-22T05:28:45.324Z,27.1
2022-10-22T05:29:47.511Z,27.2
2022-10-22T05:30:49.719Z,27.2
2022-10-22T05:31:52.237Z,27
2022-10-22T05:32:54.481Z,27.1
2022-10-22T05:33:56.690Z,27.1
2022-10-22T05:34:59.171Z,27.1
2022-10-22T05:36:01.703Z,27.2
2022-10-22T05:37:04.173Z,27.1
2022-10-22T05:38:06.652Z,27.1
2022-10-22T05:39:08.553Z,27.1
2022-10-22T05:40:19.203Z,27.1
2022-10-22T05:41:15.747Z,27.1
2022-10-22T05:42:17.945Z,27.1
2022-10-22T05:43:20.422Z,27.2
2022-10-22T05:44:22.335Z,27.1
2022-10-22T05:45:24.533Z,27
2022-10-22T05:46:26.454Z,27.2
2022-10-22T05:47:28.941Z,27.2
2022-10-22T05:48:30.617Z,27.2
2022-10-22T05:49:33.883Z,27.2
2022-10-22T05:50:36.076Z,27.1
2022-10-22T05:51:38.613Z,26.9
2022-10-22T05:52:41.402Z,27.1
2022-10-22T05:53:44.850Z,27.1
2022-10-22T05:54:47.391Z,27.3
2022-10-22T05:55:49.598Z,27.3
2022-10-22T05:56:51.797Z,27.1
2022-10-22T05:57:54.287Z,27.1
2022-10-22T05:58:56.551Z,27.2
2022-10-22T05:59:59.167Z,27
2022-10-22T06:01:01.638Z,27.1
2022-10-22T06:02:03.589Z,27.2
2022-10-22T06:03:06.265Z,27.1
2022-10-22T06:04:08.199Z,27.2
2022-10-22T06:05:10.655Z,27.1
2022-10-22T06:06:12.869Z,27.2
2022-10-22T06:07:15.391Z,27.1
2022-10-22T06:08:18.904Z,27.1
2022-10-22T06:09:21.420Z,27.1
2022-10-22T06:10:23.777Z,27
2022-10-22T06:11:27.266Z,26.9
2022-10-22T06:12:31.229Z,27.2
2022-10-22T06:13:33.695Z,26.9
2022-10-22T06:14:35.885Z,27.1
2022-10-22T06:15:38.350Z,27.2
2022-10-22T06:16:40.555Z,27.1
2022-10-22T06:17:42.755Z,27.1
2022-10-22T06:18:45.244Z,27.1
2022-10-22T06:19:48.221Z,27
2022-10-22T06:20:50.410Z,27.1
2022-10-22T06:21:52.580Z,26.9
2022-10-22T06:22:55.106Z,27
2022-10-22T06:23:57.580Z,26.9
2022-10-22T06:25:00.119Z,27.1
2022-10-22T06:26:02.609Z,27
2022-10-22T06:27:05.088Z,27
2022-10-22T06:28:07.549Z,26.9
2022-10-22T06:29:09.748Z,27.1
2022-10-22T06:30:11.942Z,27
2022-10-22T06:31:14.142Z,27.1
2022-10-22T06:32:16.614Z,27
2022-10-22T06:33:19.112Z,27
2022-10-22T06:34:21.297Z,27.1
2022-10-22T06:35:23.530Z,27
2022-10-22T06:36:25.712Z,27
2022-10-22T06:37:28.021Z,27
2022-10-22T06:38:30.542Z,27.2
2022-10-22T06:39:32.714Z,27.1
2022-10-22T06:40:34.909Z,27.1
2022-10-22T06:41:37.379Z,27.1
2022-10-22T06:42:40.524Z,27
2022-10-22T06:43:44.227Z,27.1
2022-10-22T06:44:46.737Z,27.1
2022-10-22T06:45:49.128Z,27.1
2022-10-22T06:46:51.611Z,26.9
2022-10-22T06:47:54.127Z,27.1
2022-10-22T06:48:57.211Z,26.9
2022-10-22T06:49:59.435Z,27
2022-10-22T06:51:01.655Z,26.9
2022-10-22T06:52:04.132Z,27
2022-10-22T06:53:06.396Z,27.3
2022-10-22T06:54:09.348Z,27
2022-10-22T06:55:11.531Z,27.1
2022-10-22T06:56:14.001Z,27
2022-10-22T06:57:15.919Z,26.9
2022-10-22T06:58:18.127Z,27.1
2022-10-22T06:59:20.634Z,27
2022-10-22T07:00:23.154Z,27.1
2022-10-22T07:01:26.036Z,27.1
2022-10-22T07:02:29.013Z,26.9
2022-10-22T07:03:31.205Z,27
2022-10-22T07:04:33.672Z,26.8
2022-10-22T07:05:35.913Z,26.9
2022-10-22T07:06:38.415Z,27
2022-10-22T07:07:40.625Z,26.8
2022-10-22T07:08:42.875Z,26.9
2022-10-22T07:09:45.514Z,27
2022-10-22T07:10:48.425Z,27
2022-10-22T07:11:50.364Z,26.9
2022-10-22T07:12:52.832Z,27
2022-10-22T07:13:55.557Z,26.9
2022-10-22T07:14:58.119Z,26.9
2022-10-22T07:16:00.594Z,26.9
2022-10-22T07:17:02.791Z,27
2022-10-22T07:18:04.990Z,26.9
2022-10-22T07:19:06.918Z,26.9
2022-10-22T07:20:09.110Z,26.9
2022-10-22T07:21:11.046Z,27
2022-10-22T07:22:13.567Z,27
2022-10-22T07:23:16.029Z,26.9
2022-10-22T07:24:18.511Z,26.9
2022-10-22T07:25:20.780Z,26.9
2022-10-22T07:26:23.267Z,27.1
2022-10-22T07:27:25.730Z,27
2022-10-22T07:28:27.950Z,26.9
2022-10-22T07:29:30.148Z,27
2022-10-22T07:30:32.626Z,26.7
2022-10-22T07:31:35.095Z,26.9
2022-10-22T07:32:36.999Z,26.8
2022-10-22T07:33:39.225Z,26.9
2022-10-22T07:34:41.843Z,27
2022-10-22T07:35:46.417Z,26.9
2022-10-22T07:36:49.085Z,26.9
2022-10-22T07:37:51.038Z,26.8
2022-10-22T07:38:53.514Z,26.6
2022-10-22T07:39:55.417Z,27
2022-10-22T07:41:01.131Z,26.9
2022-10-22T07:42:03.344Z,26.9
2022-10-22T07:43:05.820Z,26.9
2022-10-22T07:44:08.302Z,27.1
2022-10-22T07:45:10.816Z,27
2022-10-22T07:46:13.305Z,26.9
2022-10-22T07:47:15.783Z,27.1
2022-10-22T07:48:18.252Z,27
2022-10-22T07:49:20.163Z,26.9
2022-10-22T07:50:22.417Z,26.9
2022-10-22T07:51:24.746Z,26.8
2022-10-22T07:52:27.236Z,27
2022-10-22T07:53:29.467Z,26.8
2022-10-22T07:54:31.961Z,27
2022-10-22T07:55:34.433Z,27
2022-10-22T07:56:36.945Z,26.8
2022-10-22T07:57:39.445Z,26.9
2022-10-22T07:58:41.650Z,26.9
2022-10-22T07:59:44.123Z,27.1
2022-10-22T08:00:46.322Z,26.9
2022-10-22T08:01:49.078Z,27.1
2022-10-22T08:02:51.563Z,26.8
2022-10-22T08:03:53.240Z,27
2022-10-22T08:04:55.726Z,26.9
2022-10-22T08:05:57.633Z,26.9
2022-10-22T08:07:00.112Z,26.9
2022-10-22T08:08:02.613Z,26.9
2022-10-22T08:09:04.726Z,27
2022-10-22T08:10:07.540Z,26.9
2022-10-22T08:11:09.810Z,27
2022-10-22T08:12:12.416Z,26.9
2022-10-22T08:13:14.639Z,27
2022-10-22T08:14:17.110Z,27
2022-10-22T08:15:19.011Z,26.9
2022-10-22T08:16:21.488Z,26.9
2022-10-22T08:17:23.702Z,27
2022-10-22T08:18:26.167Z,26.9
2022-10-22T08:19:28.383Z,27
2022-10-22T08:20:30.593Z,27.1
2022-10-22T08:21:33.065Z,27
2022-10-22T08:22:34.991Z,27
2022-10-22T08:23:37.178Z,27.1
2022-10-22T08:24:39.708Z,27
2022-10-22T08:25:41.609Z,27
2022-10-22T08:26:43.510Z,26.9
2022-10-22T08:27:46.017Z,27
2022-10-22T08:28:48.319Z,26.9
2022-10-22T08:29:50.520Z,26.9
2022-10-22T08:30:52.735Z,27
2022-10-22T08:31:54.988Z,27.2
2022-10-22T08:32:57.804Z,26.9
2022-10-22T08:33:59.983Z,27
2022-10-22T08:35:02.471Z,27
2022-10-22T08:36:04.958Z,27
2022-10-22T08:37:07.188Z,27
2022-10-22T08:38:09.523Z,27
2022-10-22T08:39:11.744Z,26.9
2022-10-22T08:40:14.256Z,27
2022-10-22T08:41:16.440Z,27
2022-10-22T08:42:18.923Z,26.9
2022-10-22T08:43:21.440Z,27
2022-10-22T08:45:40.765Z,26.8
2022-10-22T08:46:42.957Z,26.8
2022-10-22T08:47:45.157Z,27
2022-10-22T08:48:47.078Z,27
2022-10-22T08:49:49.300Z,27
2022-10-22T08:50:51.509Z,27
2022-10-22T08:51:54.004Z,27.1
2022-10-22T08:52:56.475Z,27.1
2022-10-22T08:53:58.680Z,27.1
2022-10-22T08:55:01.163Z,27.1
2022-10-22T08:56:03.411Z,27.1
2022-10-22T08:57:05.877Z,27.1
2022-10-22T08:58:08.357Z,27
2022-10-22T08:59:10.588Z,26.9
2022-10-22T09:00:13.078Z,26.9
2022-10-22T09:01:15.277Z,27
2022-10-22T09:02:17.750Z,27
2022-10-22T09:03:19.924Z,27
2022-10-22T09:04:22.096Z,27
2022-10-22T09:05:24.299Z,27
2022-10-22T09:06:26.240Z,27.1
2022-10-22T09:07:28.414Z,27
2022-10-22T09:08:31.000Z,27.1
2022-10-22T09:09:33.256Z,26.9
2022-10-22T09:10:35.752Z,27.2
2022-10-22T09:11:38.349Z,26.8
2022-10-22T09:12:40.814Z,27
2022-10-22T09:13:42.994Z,27
2022-10-22T09:14:45.233Z,27.1
2022-10-22T09:15:47.910Z,27
2022-10-22T09:16:50.165Z,27
2022-10-22T09:17:52.358Z,26.9
2022-10-22T09:18:54.613Z,27.2
2022-10-22T09:19:56.804Z,27.1
2022-10-22T09:20:58.746Z,26.9
2022-10-22T09:22:00.947Z,26.8
2022-10-22T09:23:03.446Z,27.1
2022-10-22T09:24:05.920Z,27
2022-10-22T09:25:08.401Z,27.1
2022-10-22T09:26:10.964Z,27
2022-10-22T09:27:12.913Z,27.1
2022-10-22T09:28:15.386Z,27
2022-10-22T09:29:17.856Z,27
2022-10-22T09:30:21.677Z,27
2022-10-22T09:31:24.165Z,27.1
2022-10-22T09:32:26.380Z,27
2022-10-22T09:33:28.599Z,27
2022-10-22T09:34:30.811Z,26.8
2022-10-22T09:35:32.726Z,27
2022-10-22T09:36:35.207Z,27
2022-10-22T09:37:36.837Z,26.8
2022-10-22T09:38:39.367Z,27
2022-10-22T09:39:41.288Z,26.9
2022-10-22T09:40:43.497Z,26.9
2022-10-22T09:41:46.005Z,26.9
2022-10-22T09:42:48.664Z,26.8
2022-10-22T09:43:50.907Z,27
2022-10-22T09:44:53.405Z,27
2022-10-22T09:45:55.355Z,26.8
2022-10-22T09:46:57.866Z,26.7
2022-10-22T09:48:02.271Z,27.2
2022-10-22T09:49:05.077Z,27
2022-10-22T09:50:07.556Z,26.9
2022-10-22T09:51:10.039Z,27
2022-10-22T09:52:12.515Z,26.8
2022-10-22T09:53:15.000Z,27
2022-10-22T09:54:17.482Z,27.1
2022-10-22T09:55:19.976Z,26.9
2022-10-22T09:56:22.183Z,26.8
2022-10-22T09:57:24.426Z,27
2022-10-22T09:58:26.929Z,26.9
2022-10-22T09:59:29.413Z,27.1
2022-10-22T10:00:31.350Z,26.9
2022-10-22T10:01:33.871Z,27
2022-10-22T10:02:39.322Z,26.9
2022-10-22T10:03:41.079Z,27
2022-10-22T10:04:43.551Z,27.2
2022-10-22T10:05:46.018Z,26.8
2022-10-22T10:06:48.440Z,26.9
2022-10-22T10:07:50.910Z,27
2022-10-22T10:08:53.445Z,27
2022-10-22T10:09:56.364Z,27
2022-10-22T10:10:58.847Z,27.2
2022-10-22T10:12:01.349Z,27.1
2022-10-22T10:13:03.860Z,27.1
2022-10-22T10:14:06.368Z,26.9
2022-10-22T10:15:08.831Z,27
2022-10-22T10:16:11.311Z,27
2022-10-22T10:17:13.848Z,26.9
2022-10-22T10:18:16.067Z,26.9
2022-10-22T10:19:18.263Z,27.1
2022-10-22T10:20:20.777Z,26.9
2022-10-22T10:21:23.245Z,26.9
2022-10-22T10:22:25.729Z,26.8
2022-10-22T10:23:27.359Z,26.8
2022-10-22T10:24:29.835Z,27
2022-10-22T10:25:32.031Z,26.8
2022-10-22T10:26:34.530Z,26.8
2022-10-22T10:27:36.461Z,26.9
2022-10-22T10:28:39.400Z,27
2022-10-22T10:29:41.897Z,26.9
2022-10-22T10:30:44.139Z,27.1
2022-10-22T10:31:46.035Z,27
2022-10-22T10:32:48.709Z,26.9
2022-10-22T10:33:50.923Z,26.9
2022-10-22T10:34:52.578Z,26.9
2022-10-22T10:35:55.063Z,27
2022-10-22T10:36:57.503Z,27.1
2022-10-22T10:37:59.986Z,26.9
2022-10-22T10:39:02.483Z,27
2022-10-22T10:40:05.158Z,26.9
2022-10-22T10:41:07.150Z,26.9
2022-10-22T10:42:09.655Z,26.9
2022-10-22T10:43:12.141Z,27
2022-10-22T10:44:14.654Z,26.8
2022-10-22T10:45:16.593Z,27.1
2022-10-22T10:46:18.773Z,27
2022-10-22T10:47:21.071Z,27.1
2022-10-22T10:48:23.614Z,27.1
2022-10-22T10:49:25.847Z,26.9
2022-10-22T10:50:28.321Z,27
2022-10-22T10:51:30.792Z,26.9
2022-10-22T10:52:33.005Z,26.9
2022-10-22T10:53:34.912Z,27
2022-10-22T10:55:40.917Z,26.9
2022-10-22T10:56:43.118Z,27
2022-10-22T10:57:45.591Z,26.9
2022-10-22T10:58:47.217Z,26.9
2022-10-22T10:59:49.414Z,27
2022-10-22T11:00:51.637Z,27
2022-10-22T11:01:54.150Z,26.9
2022-10-22T11:03:59.488Z,26.9
2022-10-22T11:05:02.026Z,27
2022-10-22T11:06:04.521Z,26.9
2022-10-22T11:07:11.199Z,27
2022-10-22T11:08:11.992Z,27
2022-10-22T11:09:14.537Z,27
2022-10-22T11:10:17.433Z,26.9
2022-10-22T11:11:19.838Z,27
2022-10-22T11:12:22.321Z,26.8
2022-10-22T11:13:24.810Z,26.9
2022-10-22T11:14:29.294Z,26.8
2022-10-22T11:15:32.299Z,26.8
2022-10-22T11:16:34.878Z,27
2022-10-22T11:17:37.054Z,26.8
2022-10-22T11:18:38.990Z,27
2022-10-22T11:19:59.883Z,27
2022-10-22T11:20:46.249Z,26.9
2022-10-22T11:21:48.459Z,27
2022-10-22T11:23:13.456Z,27
2022-10-22T11:23:55.377Z,27
2022-10-22T11:24:57.575Z,26.9
2022-10-22T11:25:59.798Z,27
2022-10-22T11:27:01.475Z,27.1
2022-10-22T11:28:07.993Z,27
2022-10-22T11:29:08.956Z,26.9
2022-10-22T11:30:11.428Z,27.1
2022-10-22T11:31:13.355Z,27
2022-10-22T11:32:15.876Z,27
2022-10-22T11:33:18.074Z,26.9
2022-10-22T11:34:33.069Z,26.9
2022-10-22T11:35:26.000Z,26.9
2022-10-22T11:36:28.372Z,26.9
2022-10-22T11:37:31.056Z,27
2022-10-22T11:38:34.871Z,26.8
2022-10-22T11:39:37.615Z,26.9
2022-10-22T11:40:40.087Z,26.8
2022-10-22T11:41:42.562Z,27
2022-10-22T11:42:45.036Z,27
2022-10-22T11:43:47.219Z,27
2022-10-22T11:44:49.748Z,26.9
2022-10-22T11:45:52.800Z,26.8
2022-10-22T11:46:55.017Z,26.9
2022-10-22T11:47:56.987Z,26.8
2022-10-22T11:48:59.448Z,26.8
2022-10-22T11:50:01.374Z,26.9
2022-10-22T11:51:03.575Z,27.1
2022-10-22T11:52:06.095Z,26.9
2022-10-22T11:53:08.388Z,26.9
2022-10-22T11:54:12.031Z,26.9
2022-10-22T11:55:14.223Z,27
2022-10-22T11:56:15.861Z,27.1
2022-10-22T11:57:18.065Z,26.9
2022-10-22T11:58:20.299Z,27
2022-10-22T11:59:22.477Z,27
2022-10-22T12:00:25.062Z,26.9
2022-10-22T12:01:27.603Z,26.9
2022-10-22T12:02:30.423Z,26.9
2022-10-22T12:03:32.940Z,26.9
2022-10-22T12:04:34.917Z,27
2022-10-22T12:05:37.627Z,26.9
2022-10-22T12:06:39.570Z,26.8
2022-10-22T12:07:41.815Z,27
2022-10-22T12:08:44.130Z,27
2022-10-22T12:09:46.672Z,27
2022-10-22T12:10:49.187Z,26.9
2022-10-22T12:11:51.418Z,27
2022-10-22T12:12:53.634Z,27.1
2022-10-22T12:13:55.835Z,26.9
2022-10-22T12:14:58.051Z,27
2022-10-22T12:16:00.393Z,26.8
2022-10-22T12:17:02.918Z,27
2022-10-22T12:18:05.179Z,26.9
2022-10-22T12:19:07.443Z,27.1
2022-10-22T12:20:09.630Z,27
2022-10-22T12:21:11.831Z,27
2022-10-22T12:22:14.303Z,26.8
2022-10-22T12:23:16.534Z,27
2022-10-22T12:24:18.198Z,26.9
2022-10-22T12:25:20.413Z,27
2022-10-22T12:26:22.928Z,26.9
2022-10-22T12:27:25.306Z,26.9
2022-10-22T12:28:27.238Z,26.8
2022-10-22T12:29:29.470Z,26.8
2022-10-22T12:30:31.395Z,26.9
2022-10-22T12:31:33.562Z,26.9
2022-10-22T12:32:36.065Z,27
2022-10-22T12:33:38.253Z,26.9
2022-10-22T12:34:40.504Z,27
2022-10-22T12:35:43.348Z,26.9
2022-10-22T12:36:45.557Z,26.8
2022-10-22T12:37:47.753Z,26.8
2022-10-22T12:38:50.268Z,26.6
2022-10-22T12:39:52.753Z,26.9
2022-10-22T12:40:55.229Z,26.8
2022-10-22T12:41:56.868Z,26.7
2022-10-22T12:42:59.576Z,26.7
2022-10-22T12:44:02.353Z,26.7
2022-10-22T12:45:04.828Z,26.9
2022-10-22T12:46:07.025Z,26.9
2022-10-22T12:47:09.234Z,26.9
2022-10-22T12:48:11.691Z,26.9
2022-10-22T12:49:13.615Z,26.9
2022-10-22T12:50:16.136Z,26.8
2022-10-22T12:51:18.620Z,26.8
2022-10-22T12:52:21.478Z,27
2022-10-22T12:53:23.977Z,26.8
2022-10-22T12:54:26.481Z,26.8
2022-10-22T12:55:28.427Z,26.9
2022-10-22T12:56:30.622Z,26.8
2022-10-22T12:57:32.810Z,27
2022-10-22T12:58:35.018Z,26.7
2022-10-22T12:59:37.509Z,26.9
2022-10-22T13:00:40.363Z,26.8
2022-10-22T13:01:43.230Z,26.9
2022-10-22T13:02:45.695Z,26.9
2022-10-22T13:03:48.185Z,26.8
2022-10-22T13:04:50.665Z,26.9
2022-10-22T13:05:53.185Z,26.9
2022-10-22T13:06:55.381Z,27
2022-10-22T13:07:57.577Z,26.9
2022-10-22T13:08:59.536Z,26.9
2022-10-22T13:10:02.573Z,27
2022-10-22T13:11:05.140Z,26.9
2022-10-22T13:12:07.355Z,27
2022-10-22T13:13:09.282Z,27
2022-10-22T13:14:11.755Z,26.8
2022-10-22T13:15:14.226Z,27
2022-10-22T13:16:16.424Z,27
2022-10-22T13:17:18.629Z,27
2022-10-22T13:18:20.828Z,26.9
2022-10-22T13:19:23.314Z,27
2022-10-22T13:20:25.244Z,26.8
2022-10-22T13:21:27.752Z,27
2022-10-22T13:22:29.947Z,26.8
2022-10-22T13:23:32.470Z,27.1
2022-10-22T13:24:34.666Z,27.1
2022-10-22T13:25:37.189Z,26.8
2022-10-22T13:26:39.679Z,27
2022-10-22T13:27:42.067Z,27
2022-10-22T13:28:44.739Z,27
2022-10-22T13:29:47.227Z,26.8
2022-10-22T13:30:49.685Z,26.8
2022-10-22T13:31:51.896Z,27.1
2022-10-22T13:32:54.367Z,26.9
2022-10-22T13:33:56.566Z,27.1
2022-10-22T13:34:58.486Z,27
2022-10-22T13:36:00.688Z,26.9
2022-10-22T13:37:03.204Z,26.8
2022-10-22T13:38:05.676Z,27
2022-10-22T13:39:07.870Z,27.1
2022-10-22T13:40:11.158Z,26.9
2022-10-22T13:41:13.888Z,26.9
2022-10-22T13:42:16.382Z,26.9
2022-10-22T13:43:18.859Z,26.8
2022-10-22T13:44:21.383Z,26.9
2022-10-22T13:45:23.848Z,26.9
2022-10-22T13:46:26.332Z,26.8
2022-10-22T13:47:28.800Z,26.9
2022-10-22T13:48:30.732Z,27.1
2022-10-22T13:49:32.956Z,27
2022-10-22T13:50:34.968Z,26.9
2022-10-22T13:51:37.192Z,27
2022-10-22T13:52:39.736Z,27
2022-10-22T13:53:44.077Z,26.9
2022-10-22T13:54:46.288Z,26.9
2022-10-22T13:55:48.787Z,26.9
2022-10-22T13:56:51.027Z,26.8
2022-10-22T13:57:53.240Z,26.9
2022-10-22T13:58:55.485Z,27
2022-10-22T13:59:57.699Z,26.9
2022-10-22T14:01:00.278Z,26.9
2022-10-22T14:02:03.107Z,27
2022-10-22T14:03:05.580Z,26.9
2022-10-22T14:04:08.047Z,26.9
2022-10-22T14:05:10.522Z,27.2
2022-10-22T14:06:12.989Z,26.9
2022-10-22T14:07:15.478Z,26.8